sensor_id;sensor_type;location;lat;lon;timestamp;P1;durP1;ratioP1;P2;durP2;ratioP2
26718;SDS011;14326;50.794;6.060;2023-08-07T00:00:11;17.60;;;4.05;;
26718;SDS011;14326;50.794;6.060;2023-08-07T00:02:37;19.70;;;3.70;;
26718;SDS011;14326;50.794;6.060;2023-08-07T00:05:04;19.90;;;3.47;;
26718;SDS011;14326;50.794;6.060;2023-08-07T00:07:32;19.33;;;3.70;;
26718;SDS011;14326;50.794;6.060;2023-08-07T00:09:58;18.75;;;4.03;;
26718;SDS011;14326;50.794;6.060;2023-08-07T00:12:27;20.75;;;4.10;;
26718;SDS011;14326;50.794;6.060;2023-08-07T00:14:54;23.85;;;3.85;;
26718;SDS011;14326;50.794;6.060;2023-08-07T00:17:20;20.33;;;3.88;;
26718;SDS011;14326;50.794;6.060;2023-08-07T00:19:47;21.80;;;3.83;;
26718;SDS011;14326;50.794;6.060;2023-08-07T00:22:13;18.40;;;3.30;;
26718;SDS011;14326;50.794;6.060;2023-08-07T00:24:40;19.73;;;3.15;;
26718;SDS011;14326;50.794;6.060;2023-08-07T00:27:06;15.55;;;3.63;;
26718;SDS011;14326;50.794;6.060;2023-08-07T00:29:36;19.50;;;4.13;;
26718;SDS011;14326;50.794;6.060;2023-08-07T00:32:03;22.80;;;3.92;;
26718;SDS011;14326;50.794;6.060;2023-08-07T00:34:30;21.60;;;3.85;;
26718;SDS011;14326;50.794;6.060;2023-08-07T00:36:56;22.77;;;3.75;;
26718;SDS011;14326;50.794;6.060;2023-08-07T00:39:23;17.17;;;3.20;;
26718;SDS011;14326;50.794;6.060;2023-08-07T00:41:50;25.25;;;4.43;;
26718;SDS011;14326;50.794;6.060;2023-08-07T00:44:17;18.33;;;3.85;;
26718;SDS011;14326;50.794;6.060;2023-08-07T00:46:45;20.83;;;4.18;;
26718;SDS011;14326;50.794;6.060;2023-08-07T00:49:12;20.83;;;4.18;;
26718;SDS011;14326;50.794;6.060;2023-08-07T00:51:39;16.65;;;3.30;;
26718;SDS011;14326;50.794;6.060;2023-08-07T00:54:06;15.35;;;3.42;;
26718;SDS011;14326;50.794;6.060;2023-08-07T00:56:35;14.50;;;3.20;;
26718;SDS011;14326;50.794;6.060;2023-08-07T00:59:03;18.85;;;3.42;;
26718;SDS011;14326;50.794;6.060;2023-08-07T01:01:29;23.15;;;4.30;;
26718;SDS011;14326;50.794;6.060;2023-08-07T01:03:57;15.77;;;3.60;;
26718;SDS011;14326;50.794;6.060;2023-08-07T01:06:24;22.05;;;3.60;;
26718;SDS011;14326;50.794;6.060;2023-08-07T01:08:51;20.30;;;4.20;;
26718;SDS011;14326;50.794;6.060;2023-08-07T01:11:20;15.63;;;3.40;;
26718;SDS011;14326;50.794;6.060;2023-08-07T01:13:51;22.88;;;4.07;;
26718;SDS011;14326;50.794;6.060;2023-08-07T01:16:26;14.32;;;3.42;;
26718;SDS011;14326;50.794;6.060;2023-08-07T01:18:59;19.77;;;3.80;;
26718;SDS011;14326;50.794;6.060;2023-08-07T01:21:27;22.60;;;3.95;;
26718;SDS011;14326;50.794;6.060;2023-08-07T01:23:56;18.90;;;2.92;;
26718;SDS011;14326;50.794;6.060;2023-08-07T01:26:22;16.42;;;3.33;;
26718;SDS011;14326;50.794;6.060;2023-08-07T01:28:50;20.80;;;3.00;;
26718;SDS011;14326;50.794;6.060;2023-08-07T01:31:24;17.38;;;3.42;;
26718;SDS011;14326;50.794;6.060;2023-08-07T01:33:54;17.30;;;4.03;;
26718;SDS011;14326;50.794;6.060;2023-08-07T01:36:24;19.75;;;3.63;;
26718;SDS011;14326;50.794;6.060;2023-08-07T01:38:55;19.67;;;3.45;;
26718;SDS011;14326;50.794;6.060;2023-08-07T01:41:23;12.43;;;2.80;;
26718;SDS011;14326;50.794;6.060;2023-08-07T01:43:50;19.27;;;3.67;;
26718;SDS011;14326;50.794;6.060;2023-08-07T01:46:17;18.33;;;4.25;;
26718;SDS011;14326;50.794;6.060;2023-08-07T01:48:44;13.27;;;3.20;;
26718;SDS011;14326;50.794;6.060;2023-08-07T01:51:11;16.88;;;3.78;;
26718;SDS011;14326;50.794;6.060;2023-08-07T01:53:37;22.02;;;3.75;;
26718;SDS011;14326;50.794;6.060;2023-08-07T01:56:05;16.98;;;3.38;;
26718;SDS011;14326;50.794;6.060;2023-08-07T01:58:32;19.65;;;3.78;;
26718;SDS011;14326;50.794;6.060;2023-08-07T02:00:58;21.60;;;3.47;;
26718;SDS011;14326;50.794;6.060;2023-08-07T02:03:25;19.13;;;3.35;;
26718;SDS011;14326;50.794;6.060;2023-08-07T02:05:52;20.63;;;3.97;;
26718;SDS011;14326;50.794;6.060;2023-08-07T02:08:18;20.95;;;4.05;;
26718;SDS011;14326;50.794;6.060;2023-08-07T02:10:47;20.88;;;3.13;;
26718;SDS011;14326;50.794;6.060;2023-08-07T02:13:15;18.92;;;3.65;;
26718;SDS011;14326;50.794;6.060;2023-08-07T02:15:42;19.50;;;3.47;;
26718;SDS011;14326;50.794;6.060;2023-08-07T02:18:08;21.05;;;3.47;;
26718;SDS011;14326;50.794;6.060;2023-08-07T02:20:35;16.73;;;3.72;;
26718;SDS011;14326;50.794;6.060;2023-08-07T02:23:01;15.07;;;3.50;;
26718;SDS011;14326;50.794;6.060;2023-08-07T02:25:28;18.02;;;3.70;;
26718;SDS011;14326;50.794;6.060;2023-08-07T02:27:55;20.35;;;3.33;;
26718;SDS011;14326;50.794;6.060;2023-08-07T02:30:23;14.10;;;3.30;;
26718;SDS011;14326;50.794;6.060;2023-08-07T02:32:49;18.45;;;3.92;;
26718;SDS011;14326;50.794;6.060;2023-08-07T02:35:16;18.95;;;2.92;;
26718;SDS011;14326;50.794;6.060;2023-08-07T02:37:42;14.45;;;3.65;;
26718;SDS011;14326;50.794;6.060;2023-08-07T02:40:09;15.25;;;2.70;;
26718;SDS011;14326;50.794;6.060;2023-08-07T02:42:40;21.55;;;3.55;;
26718;SDS011;14326;50.794;6.060;2023-08-07T02:45:07;15.57;;;3.20;;
26718;SDS011;14326;50.794;6.060;2023-08-07T02:47:35;15.40;;;3.33;;
26718;SDS011;14326;50.794;6.060;2023-08-07T02:50:02;16.80;;;2.80;;
26718;SDS011;14326;50.794;6.060;2023-08-07T02:52:29;18.45;;;3.67;;
26718;SDS011;14326;50.794;6.060;2023-08-07T02:54:56;13.80;;;3.35;;
26718;SDS011;14326;50.794;6.060;2023-08-07T02:57:23;18.88;;;3.85;;
26718;SDS011;14326;50.794;6.060;2023-08-07T02:59:50;19.25;;;3.15;;
26718;SDS011;14326;50.794;6.060;2023-08-07T03:02:16;16.88;;;3.42;;
26718;SDS011;14326;50.794;6.060;2023-08-07T03:04:44;15.27;;;3.17;;
26718;SDS011;14326;50.794;6.060;2023-08-07T03:07:11;13.15;;;3.20;;
26718;SDS011;14326;50.794;6.060;2023-08-07T03:09:37;18.30;;;3.28;;
26718;SDS011;14326;50.794;6.060;2023-08-07T03:12:04;19.17;;;4.32;;
26718;SDS011;14326;50.794;6.060;2023-08-07T03:14:31;18.08;;;3.90;;
26718;SDS011;14326;50.794;6.060;2023-08-07T03:16:58;17.95;;;4.07;;
26718;SDS011;14326;50.794;6.060;2023-08-07T03:19:24;14.80;;;3.40;;
26718;SDS011;14326;50.794;6.060;2023-08-07T03:21:52;12.57;;;3.45;;
26718;SDS011;14326;50.794;6.060;2023-08-07T03:24:19;18.77;;;3.70;;
26718;SDS011;14326;50.794;6.060;2023-08-07T03:26:46;19.67;;;4.13;;
26718;SDS011;14326;50.794;6.060;2023-08-07T03:29:14;21.80;;;4.13;;
26718;SDS011;14326;50.794;6.060;2023-08-07T03:31:40;16.20;;;3.53;;
26718;SDS011;14326;50.794;6.060;2023-08-07T03:34:07;17.77;;;4.35;;
26718;SDS011;14326;50.794;6.060;2023-08-07T03:36:34;17.35;;;3.30;;
26718;SDS011;14326;50.794;6.060;2023-08-07T03:39:02;18.17;;;3.58;;
26718;SDS011;14326;50.794;6.060;2023-08-07T03:41:28;17.80;;;3.67;;
26718;SDS011;14326;50.794;6.060;2023-08-07T03:43:55;15.05;;;3.95;;
26718;SDS011;14326;50.794;6.060;2023-08-07T03:46:21;18.02;;;2.97;;
26718;SDS011;14326;50.794;6.060;2023-08-07T03:48:48;16.23;;;3.13;;
26718;SDS011;14326;50.794;6.060;2023-08-07T03:51:15;14.88;;;3.13;;
26718;SDS011;14326;50.794;6.060;2023-08-07T03:53:42;16.52;;;3.40;;
26718;SDS011;14326;50.794;6.060;2023-08-07T03:56:10;14.63;;;3.08;;
26718;SDS011;14326;50.794;6.060;2023-08-07T03:58:36;12.25;;;2.88;;
26718;SDS011;14326;50.794;6.060;2023-08-07T04:01:03;19.27;;;3.45;;
26718;SDS011;14326;50.794;6.060;2023-08-07T04:03:30;18.13;;;3.22;;
26718;SDS011;14326;50.794;6.060;2023-08-07T04:05:56;17.33;;;3.25;;
26718;SDS011;14326;50.794;6.060;2023-08-07T04:08:25;18.75;;;3.20;;
26718;SDS011;14326;50.794;6.060;2023-08-07T04:10:59;17.92;;;3.45;;
26718;SDS011;14326;50.794;6.060;2023-08-07T04:13:28;16.02;;;3.22;;
26718;SDS011;14326;50.794;6.060;2023-08-07T04:15:55;12.80;;;3.00;;
26718;SDS011;14326;50.794;6.060;2023-08-07T04:18:22;18.23;;;3.58;;
26718;SDS011;14326;50.794;6.060;2023-08-07T04:20:49;15.43;;;3.42;;
26718;SDS011;14326;50.794;6.060;2023-08-07T04:23:17;18.00;;;3.28;;
26718;SDS011;14326;50.794;6.060;2023-08-07T04:25:44;15.02;;;3.30;;
26718;SDS011;14326;50.794;6.060;2023-08-07T04:28:11;19.73;;;3.65;;
26718;SDS011;14326;50.794;6.060;2023-08-07T04:30:39;16.02;;;3.17;;
26718;SDS011;14326;50.794;6.060;2023-08-07T04:33:06;17.75;;;3.53;;
26718;SDS011;14326;50.794;6.060;2023-08-07T04:35:33;18.42;;;3.28;;
26718;SDS011;14326;50.794;6.060;2023-08-07T04:38:00;16.85;;;3.20;;
26718;SDS011;14326;50.794;6.060;2023-08-07T04:40:27;10.88;;;3.00;;
26718;SDS011;14326;50.794;6.060;2023-08-07T04:42:54;14.40;;;3.20;;
26718;SDS011;14326;50.794;6.060;2023-08-07T04:45:20;14.25;;;2.95;;
26718;SDS011;14326;50.794;6.060;2023-08-07T04:47:48;11.27;;;2.80;;
26718;SDS011;14326;50.794;6.060;2023-08-07T04:50:15;15.20;;;3.65;;
26718;SDS011;14326;50.794;6.060;2023-08-07T04:52:42;13.48;;;3.40;;
26718;SDS011;14326;50.794;6.060;2023-08-07T04:55:09;17.95;;;3.60;;
26718;SDS011;14326;50.794;6.060;2023-08-07T04:57:35;14.43;;;3.70;;
26718;SDS011;14326;50.794;6.060;2023-08-07T05:00:02;15.40;;;3.78;;
26718;SDS011;14326;50.794;6.060;2023-08-07T05:02:29;14.40;;;3.03;;
26718;SDS011;14326;50.794;6.060;2023-08-07T05:04:58;16.30;;;2.85;;
26718;SDS011;14326;50.794;6.060;2023-08-07T05:07:24;14.30;;;2.78;;
26718;SDS011;14326;50.794;6.060;2023-08-07T05:09:51;13.85;;;2.75;;
26718;SDS011;14326;50.794;6.060;2023-08-07T05:12:18;11.25;;;2.67;;
26718;SDS011;14326;50.794;6.060;2023-08-07T05:14:45;12.90;;;2.75;;
26718;SDS011;14326;50.794;6.060;2023-08-07T05:17:11;14.75;;;3.03;;
26718;SDS011;14326;50.794;6.060;2023-08-07T05:19:38;13.40;;;3.17;;
26718;SDS011;14326;50.794;6.060;2023-08-07T05:22:06;14.70;;;3.05;;
26718;SDS011;14326;50.794;6.060;2023-08-07T05:24:33;11.82;;;2.72;;
26718;SDS011;14326;50.794;6.060;2023-08-07T05:29:30;15.65;;;2.97;;
26718;SDS011;14326;50.794;6.060;2023-08-07T05:31:57;13.93;;;3.15;;
26718;SDS011;14326;50.794;6.060;2023-08-07T05:34:23;14.40;;;2.70;;
26718;SDS011;14326;50.794;6.060;2023-08-07T05:36:50;10.65;;;2.67;;
26718;SDS011;14326;50.794;6.060;2023-08-07T05:39:18;17.98;;;3.05;;
26718;SDS011;14326;50.794;6.060;2023-08-07T05:41:45;11.15;;;2.85;;
26718;SDS011;14326;50.794;6.060;2023-08-07T05:44:12;16.25;;;2.92;;
26718;SDS011;14326;50.794;6.060;2023-08-07T05:46:38;16.77;;;3.22;;
26718;SDS011;14326;50.794;6.060;2023-08-07T05:49:05;12.10;;;2.95;;
26718;SDS011;14326;50.794;6.060;2023-08-07T05:51:31;9.75;;;2.72;;
26718;SDS011;14326;50.794;6.060;2023-08-07T05:53:58;15.38;;;3.00;;
26718;SDS011;14326;50.794;6.060;2023-08-07T05:56:26;14.25;;;2.72;;
26718;SDS011;14326;50.794;6.060;2023-08-07T05:58:53;14.98;;;2.85;;
26718;SDS011;14326;50.794;6.060;2023-08-07T06:01:19;12.75;;;2.90;;
26718;SDS011;14326;50.794;6.060;2023-08-07T06:03:47;17.42;;;3.00;;
26718;SDS011;14326;50.794;6.060;2023-08-07T06:06:13;14.13;;;2.97;;
26718;SDS011;14326;50.794;6.060;2023-08-07T06:08:40;13.65;;;3.17;;
26718;SDS011;14326;50.794;6.060;2023-08-07T06:11:07;14.30;;;3.50;;
26718;SDS011;14326;50.794;6.060;2023-08-07T06:13:35;13.38;;;3.00;;
26718;SDS011;14326;50.794;6.060;2023-08-07T06:16:01;16.30;;;3.33;;
26718;SDS011;14326;50.794;6.060;2023-08-07T06:18:28;21.27;;;3.08;;
26718;SDS011;14326;50.794;6.060;2023-08-07T06:20:55;16.75;;;3.10;;
26718;SDS011;14326;50.794;6.060;2023-08-07T06:23:22;12.32;;;3.00;;
26718;SDS011;14326;50.794;6.060;2023-08-07T06:25:49;14.80;;;3.10;;
26718;SDS011;14326;50.794;6.060;2023-08-07T06:28:15;12.73;;;2.95;;
26718;SDS011;14326;50.794;6.060;2023-08-07T06:30:44;18.73;;;3.22;;
26718;SDS011;14326;50.794;6.060;2023-08-07T06:33:11;12.35;;;3.22;;
26718;SDS011;14326;50.794;6.060;2023-08-07T06:35:37;13.98;;;3.20;;
26718;SDS011;14326;50.794;6.060;2023-08-07T06:38:04;13.55;;;3.20;;
26718;SDS011;14326;50.794;6.060;2023-08-07T06:40:31;17.33;;;3.28;;
26718;SDS011;14326;50.794;6.060;2023-08-07T06:42:58;13.23;;;3.08;;
26718;SDS011;14326;50.794;6.060;2023-08-07T06:45:24;17.05;;;3.42;;
26718;SDS011;14326;50.794;6.060;2023-08-07T06:47:52;26.48;;;3.92;;
26718;SDS011;14326;50.794;6.060;2023-08-07T06:50:19;17.42;;;3.53;;
26718;SDS011;14326;50.794;6.060;2023-08-07T06:52:46;18.63;;;3.42;;
26718;SDS011;14326;50.794;6.060;2023-08-07T06:55:12;22.27;;;4.68;;
26718;SDS011;14326;50.794;6.060;2023-08-07T06:57:39;14.30;;;2.92;;
26718;SDS011;14326;50.794;6.060;2023-08-07T07:00:06;14.38;;;2.70;;
26718;SDS011;14326;50.794;6.060;2023-08-07T07:02:33;16.77;;;3.70;;
26718;SDS011;14326;50.794;6.060;2023-08-07T07:05:01;15.63;;;3.40;;
26718;SDS011;14326;50.794;6.060;2023-08-07T07:07:30;14.07;;;3.20;;
26718;SDS011;14326;50.794;6.060;2023-08-07T07:09:56;17.50;;;3.63;;
26718;SDS011;14326;50.794;6.060;2023-08-07T07:12:25;14.35;;;3.10;;
26718;SDS011;14326;50.794;6.060;2023-08-07T07:14:52;15.85;;;3.20;;
26718;SDS011;14326;50.794;6.060;2023-08-07T07:17:18;16.20;;;3.45;;
26718;SDS011;14326;50.794;6.060;2023-08-07T07:19:45;15.43;;;3.17;;
26718;SDS011;14326;50.794;6.060;2023-08-07T07:22:13;13.52;;;3.08;;
26718;SDS011;14326;50.794;6.060;2023-08-07T07:24:40;14.38;;;3.33;;
26718;SDS011;14326;50.794;6.060;2023-08-07T07:27:06;15.75;;;3.45;;
26718;SDS011;14326;50.794;6.060;2023-08-07T07:29:33;14.85;;;3.20;;
26718;SDS011;14326;50.794;6.060;2023-08-07T07:31:59;15.75;;;3.13;;
26718;SDS011;14326;50.794;6.060;2023-08-07T07:34:49;13.80;;;3.10;;
26718;SDS011;14326;50.794;6.060;2023-08-07T07:37:15;12.52;;;3.10;;
26718;SDS011;14326;50.794;6.060;2023-08-07T07:39:42;17.15;;;3.50;;
26718;SDS011;14326;50.794;6.060;2023-08-07T07:42:08;13.55;;;3.17;;
26718;SDS011;14326;50.794;6.060;2023-08-07T07:44:35;17.45;;;3.65;;
26718;SDS011;14326;50.794;6.060;2023-08-07T07:47:01;17.20;;;3.03;;
26718;SDS011;14326;50.794;6.060;2023-08-07T07:49:27;18.88;;;3.13;;
26718;SDS011;14326;50.794;6.060;2023-08-07T07:51:55;11.25;;;3.20;;
26718;SDS011;14326;50.794;6.060;2023-08-07T07:54:22;15.73;;;3.40;;
26718;SDS011;14326;50.794;6.060;2023-08-07T07:56:48;16.83;;;3.60;;
26718;SDS011;14326;50.794;6.060;2023-08-07T07:59:14;11.52;;;2.83;;
26718;SDS011;14326;50.794;6.060;2023-08-07T08:01:41;16.85;;;3.50;;
26718;SDS011;14326;50.794;6.060;2023-08-07T08:04:07;14.40;;;3.50;;
26718;SDS011;14326;50.794;6.060;2023-08-07T08:06:35;15.75;;;3.45;;
26718;SDS011;14326;50.794;6.060;2023-08-07T08:09:02;15.10;;;4.03;;
26718;SDS011;14326;50.794;6.060;2023-08-07T08:11:29;20.27;;;3.53;;
26718;SDS011;14326;50.794;6.060;2023-08-07T08:13:56;12.10;;;3.15;;
26718;SDS011;14326;50.794;6.060;2023-08-07T08:16:22;16.48;;;3.35;;
26718;SDS011;14326;50.794;6.060;2023-08-07T08:18:49;12.93;;;2.88;;
26718;SDS011;14326;50.794;6.060;2023-08-07T08:21:15;16.00;;;3.40;;
26718;SDS011;14326;50.794;6.060;2023-08-07T08:23:41;19.20;;;3.15;;
26718;SDS011;14326;50.794;6.060;2023-08-07T08:26:09;13.43;;;2.97;;
26718;SDS011;14326;50.794;6.060;2023-08-07T08:28:36;15.07;;;3.55;;
26718;SDS011;14326;50.794;6.060;2023-08-07T08:31:02;19.55;;;4.43;;
26718;SDS011;14326;50.794;6.060;2023-08-07T08:33:28;17.98;;;3.00;;
26718;SDS011;14326;50.794;6.060;2023-08-07T08:35:55;13.93;;;2.90;;
26718;SDS011;14326;50.794;6.060;2023-08-07T08:38:21;10.65;;;2.58;;
26718;SDS011;14326;50.794;6.060;2023-08-07T08:40:49;14.00;;;2.88;;
26718;SDS011;14326;50.794;6.060;2023-08-07T08:43:19;12.15;;;3.10;;
26718;SDS011;14326;50.794;6.060;2023-08-07T08:45:45;20.20;;;3.30;;
26718;SDS011;14326;50.794;6.060;2023-08-07T08:48:13;18.02;;;3.55;;
26718;SDS011;14326;50.794;6.060;2023-08-07T08:50:43;14.55;;;3.33;;
26718;SDS011;14326;50.794;6.060;2023-08-07T08:53:10;14.80;;;3.22;;
26718;SDS011;14326;50.794;6.060;2023-08-07T08:55:36;14.23;;;3.03;;
26718;SDS011;14326;50.794;6.060;2023-08-07T08:58:03;10.93;;;2.83;;
26718;SDS011;14326;50.794;6.060;2023-08-07T09:00:31;11.13;;;2.63;;
26718;SDS011;14326;50.794;6.060;2023-08-07T09:02:59;13.57;;;3.30;;
26718;SDS011;14326;50.794;6.060;2023-08-07T09:05:26;13.90;;;2.80;;
26718;SDS011;14326;50.794;6.060;2023-08-07T09:07:53;15.15;;;3.72;;
26718;SDS011;14326;50.794;6.060;2023-08-07T09:10:21;13.90;;;3.40;;
26718;SDS011;14326;50.794;6.060;2023-08-07T09:12:50;14.55;;;2.75;;
26718;SDS011;14326;50.794;6.060;2023-08-07T09:17:46;10.80;;;2.53;;
26718;SDS011;14326;50.794;6.060;2023-08-07T09:20:13;14.40;;;3.05;;
26718;SDS011;14326;50.794;6.060;2023-08-07T09:22:40;15.65;;;3.47;;
26718;SDS011;14326;50.794;6.060;2023-08-07T09:25:07;13.40;;;3.22;;
26718;SDS011;14326;50.794;6.060;2023-08-07T09:27:35;16.52;;;2.95;;
26718;SDS011;14326;50.794;6.060;2023-08-07T09:30:01;13.25;;;3.45;;
26718;SDS011;14326;50.794;6.060;2023-08-07T09:32:28;12.70;;;2.65;;
26718;SDS011;14326;50.794;6.060;2023-08-07T09:34:56;11.68;;;2.85;;
26718;SDS011;14326;50.794;6.060;2023-08-07T09:37:24;11.38;;;2.80;;
26718;SDS011;14326;50.794;6.060;2023-08-07T09:39:50;13.25;;;2.65;;
26718;SDS011;14326;50.794;6.060;2023-08-07T09:42:17;12.55;;;2.75;;
26718;SDS011;14326;50.794;6.060;2023-08-07T09:44:43;14.95;;;2.83;;
26718;SDS011;14326;50.794;6.060;2023-08-07T09:47:12;11.60;;;2.50;;
26718;SDS011;14326;50.794;6.060;2023-08-07T09:49:39;11.02;;;2.40;;
26718;SDS011;14326;50.794;6.060;2023-08-07T09:52:07;10.43;;;2.50;;
26718;SDS011;14326;50.794;6.060;2023-08-07T09:54:33;10.95;;;2.20;;
26718;SDS011;14326;50.794;6.060;2023-08-07T09:57:00;13.15;;;2.40;;
26718;SDS011;14326;50.794;6.060;2023-08-07T09:59:27;12.15;;;2.95;;
26718;SDS011;14326;50.794;6.060;2023-08-07T10:01:54;12.25;;;2.97;;
26718;SDS011;14326;50.794;6.060;2023-08-07T10:04:20;15.50;;;2.90;;
26718;SDS011;14326;50.794;6.060;2023-08-07T10:06:47;10.85;;;2.90;;
26718;SDS011;14326;50.794;6.060;2023-08-07T10:09:15;12.38;;;2.85;;
26718;SDS011;14326;50.794;6.060;2023-08-07T10:11:42;15.00;;;3.03;;
26718;SDS011;14326;50.794;6.060;2023-08-07T10:14:08;16.67;;;3.88;;
26718;SDS011;14326;50.794;6.060;2023-08-07T10:16:35;12.48;;;2.70;;
26718;SDS011;14326;50.794;6.060;2023-08-07T10:19:04;11.48;;;2.60;;
26718;SDS011;14326;50.794;6.060;2023-08-07T10:21:31;15.60;;;2.75;;
26718;SDS011;14326;50.794;6.060;2023-08-07T10:23:57;12.38;;;2.65;;
26718;SDS011;14326;50.794;6.060;2023-08-07T10:26:26;10.82;;;2.70;;
26718;SDS011;14326;50.794;6.060;2023-08-07T10:28:53;14.80;;;2.80;;
26718;SDS011;14326;50.794;6.060;2023-08-07T10:31:20;15.88;;;2.97;;
26718;SDS011;14326;50.794;6.060;2023-08-07T10:33:47;14.68;;;3.00;;
26718;SDS011;14326;50.794;6.060;2023-08-07T10:36:15;16.70;;;3.15;;
26718;SDS011;14326;50.794;6.060;2023-08-07T10:38:42;11.60;;;2.83;;
26718;SDS011;14326;50.794;6.060;2023-08-07T10:41:09;11.43;;;2.45;;
26718;SDS011;14326;50.794;6.060;2023-08-07T10:43:40;9.38;;;2.60;;
26718;SDS011;14326;50.794;6.060;2023-08-07T10:46:07;14.40;;;3.30;;
26718;SDS011;14326;50.794;6.060;2023-08-07T10:48:38;16.30;;;3.10;;
26718;SDS011;14326;50.794;6.060;2023-08-07T10:51:04;16.98;;;3.30;;
26718;SDS011;14326;50.794;6.060;2023-08-07T10:53:31;14.20;;;3.55;;
26718;SDS011;14326;50.794;6.060;2023-08-07T10:55:58;8.52;;;2.42;;
26718;SDS011;14326;50.794;6.060;2023-08-07T10:58:29;14.57;;;2.85;;
26718;SDS011;14326;50.794;6.060;2023-08-07T11:03:39;10.95;;;2.63;;
26718;SDS011;14326;50.794;6.060;2023-08-07T11:06:06;11.50;;;2.83;;
26718;SDS011;14326;50.794;6.060;2023-08-07T11:08:32;15.00;;;2.60;;
26718;SDS011;14326;50.794;6.060;2023-08-07T11:11:03;15.15;;;2.80;;
26718;SDS011;14326;50.794;6.060;2023-08-07T11:13:30;15.98;;;3.55;;
26718;SDS011;14326;50.794;6.060;2023-08-07T11:15:56;11.02;;;2.47;;
26718;SDS011;14326;50.794;6.060;2023-08-07T11:18:23;10.48;;;2.70;;
26718;SDS011;14326;50.794;6.060;2023-08-07T11:20:50;17.95;;;2.78;;
26718;SDS011;14326;50.794;6.060;2023-08-07T11:23:22;11.70;;;2.65;;
26718;SDS011;14326;50.794;6.060;2023-08-07T11:25:48;12.55;;;2.92;;
26718;SDS011;14326;50.794;6.060;2023-08-07T11:28:17;11.27;;;2.70;;
26718;SDS011;14326;50.794;6.060;2023-08-07T11:30:43;11.27;;;2.80;;
26718;SDS011;14326;50.794;6.060;2023-08-07T11:33:10;14.25;;;2.85;;
26718;SDS011;14326;50.794;6.060;2023-08-07T11:35:40;12.52;;;2.95;;
26718;SDS011;14326;50.794;6.060;2023-08-07T11:38:08;13.10;;;2.97;;
26718;SDS011;14326;50.794;6.060;2023-08-07T11:40:34;15.07;;;2.70;;
26718;SDS011;14326;50.794;6.060;2023-08-07T11:43:01;10.32;;;2.33;;
26718;SDS011;14326;50.794;6.060;2023-08-07T11:45:27;10.13;;;2.72;;
26718;SDS011;14326;50.794;6.060;2023-08-07T11:47:54;9.77;;;2.53;;
26718;SDS011;14326;50.794;6.060;2023-08-07T11:50:23;11.07;;;2.65;;
26718;SDS011;14326;50.794;6.060;2023-08-07T11:52:49;11.85;;;2.97;;
26718;SDS011;14326;50.794;6.060;2023-08-07T11:55:17;13.75;;;2.47;;
26718;SDS011;14326;50.794;6.060;2023-08-07T11:57:45;13.57;;;2.78;;
26718;SDS011;14326;50.794;6.060;2023-08-07T12:00:12;10.90;;;2.38;;
26718;SDS011;14326;50.794;6.060;2023-08-07T12:02:41;12.55;;;2.65;;
26718;SDS011;14326;50.794;6.060;2023-08-07T12:05:07;9.90;;;2.40;;
26718;SDS011;14326;50.794;6.060;2023-08-07T12:07:35;12.02;;;2.40;;
26718;SDS011;14326;50.794;6.060;2023-08-07T12:10:03;8.80;;;2.53;;
26718;SDS011;14326;50.794;6.060;2023-08-07T12:12:33;11.40;;;2.45;;
26718;SDS011;14326;50.794;6.060;2023-08-07T12:15:00;13.10;;;2.53;;
26718;SDS011;14326;50.794;6.060;2023-08-07T12:17:29;11.02;;;2.53;;
26718;SDS011;14326;50.794;6.060;2023-08-07T12:19:57;11.63;;;2.37;;
26718;SDS011;14326;50.794;6.060;2023-08-07T12:22:24;14.48;;;2.78;;
26718;SDS011;14326;50.794;6.060;2023-08-07T12:24:53;10.05;;;2.47;;
26718;SDS011;14326;50.794;6.060;2023-08-07T12:27:19;12.60;;;2.60;;
26718;SDS011;14326;50.794;6.060;2023-08-07T12:29:47;10.88;;;2.55;;
26718;SDS011;14326;50.794;6.060;2023-08-07T12:32:14;9.02;;;2.42;;
26718;SDS011;14326;50.794;6.060;2023-08-07T12:34:40;13.63;;;2.35;;
26718;SDS011;14326;50.794;6.060;2023-08-07T12:37:06;8.77;;;2.42;;
26718;SDS011;14326;50.794;6.060;2023-08-07T12:39:34;9.55;;;2.75;;
26718;SDS011;14326;50.794;6.060;2023-08-07T12:42:00;8.93;;;2.63;;
26718;SDS011;14326;50.794;6.060;2023-08-07T12:44:28;10.73;;;2.42;;
26718;SDS011;14326;50.794;6.060;2023-08-07T12:46:56;12.43;;;2.50;;
26718;SDS011;14326;50.794;6.060;2023-08-07T12:49:23;12.13;;;2.67;;
26718;SDS011;14326;50.794;6.060;2023-08-07T12:51:49;10.98;;;2.42;;
26718;SDS011;14326;50.794;6.060;2023-08-07T12:54:16;11.27;;;2.80;;
26718;SDS011;14326;50.794;6.060;2023-08-07T12:56:43;8.82;;;2.47;;
26718;SDS011;14326;50.794;6.060;2023-08-07T12:59:09;11.35;;;2.47;;
26718;SDS011;14326;50.794;6.060;2023-08-07T13:01:37;10.70;;;2.10;;
26718;SDS011;14326;50.794;6.060;2023-08-07T13:04:05;10.57;;;2.30;;
26718;SDS011;14326;50.794;6.060;2023-08-07T13:06:33;9.32;;;2.60;;
26718;SDS011;14326;50.794;6.060;2023-08-07T13:08:59;10.52;;;1.95;;
26718;SDS011;14326;50.794;6.060;2023-08-07T13:11:26;9.30;;;2.40;;
26718;SDS011;14326;50.794;6.060;2023-08-07T13:13:52;8.30;;;2.22;;
26718;SDS011;14326;50.794;6.060;2023-08-07T13:16:19;9.45;;;2.55;;
26718;SDS011;14326;50.794;6.060;2023-08-07T13:18:45;10.55;;;2.60;;
26718;SDS011;14326;50.794;6.060;2023-08-07T13:21:13;9.63;;;1.92;;
26718;SDS011;14326;50.794;6.060;2023-08-07T13:23:39;7.72;;;1.98;;
26718;SDS011;14326;50.794;6.060;2023-08-07T13:26:06;7.97;;;1.88;;
26718;SDS011;14326;50.794;6.060;2023-08-07T13:28:32;7.28;;;2.05;;
26718;SDS011;14326;50.794;6.060;2023-08-07T13:30:59;8.43;;;2.10;;
26718;SDS011;14326;50.794;6.060;2023-08-07T13:33:25;8.52;;;1.80;;
26718;SDS011;14326;50.794;6.060;2023-08-07T13:35:51;6.60;;;1.73;;
26718;SDS011;14326;50.794;6.060;2023-08-07T13:38:19;8.00;;;1.80;;
26718;SDS011;14326;50.794;6.060;2023-08-07T13:40:46;6.97;;;2.05;;
26718;SDS011;14326;50.794;6.060;2023-08-07T13:43:12;5.18;;;1.52;;
26718;SDS011;14326;50.794;6.060;2023-08-07T13:45:38;5.28;;;1.70;;
26718;SDS011;14326;50.794;6.060;2023-08-07T13:48:05;4.15;;;1.83;;
26718;SDS011;14326;50.794;6.060;2023-08-07T13:50:34;9.23;;;2.47;;
26718;SDS011;14326;50.794;6.060;2023-08-07T13:53:02;8.73;;;1.80;;
26718;SDS011;14326;50.794;6.060;2023-08-07T13:55:30;7.38;;;2.22;;
26718;SDS011;14326;50.794;6.060;2023-08-07T13:57:56;9.23;;;1.98;;
26718;SDS011;14326;50.794;6.060;2023-08-07T14:00:23;3.92;;;1.67;;
26718;SDS011;14326;50.794;6.060;2023-08-07T14:02:49;7.07;;;1.85;;
26718;SDS011;14326;50.794;6.060;2023-08-07T14:05:15;7.15;;;1.80;;
26718;SDS011;14326;50.794;6.060;2023-08-07T14:07:42;8.02;;;1.70;;
26718;SDS011;14326;50.794;6.060;2023-08-07T14:10:08;7.65;;;2.03;;
26718;SDS011;14326;50.794;6.060;2023-08-07T14:12:36;9.05;;;2.15;;
26718;SDS011;14326;50.794;6.060;2023-08-07T14:15:03;5.00;;;1.65;;
26718;SDS011;14326;50.794;6.060;2023-08-07T14:17:29;4.32;;;1.60;;
26718;SDS011;14326;50.794;6.060;2023-08-07T14:19:56;5.25;;;1.70;;
26718;SDS011;14326;50.794;6.060;2023-08-07T14:22:22;6.05;;;1.95;;
26718;SDS011;14326;50.794;6.060;2023-08-07T14:24:48;4.60;;;1.65;;
26718;SDS011;14326;50.794;6.060;2023-08-07T14:27:15;4.97;;;1.33;;
26718;SDS011;14326;50.794;6.060;2023-08-07T14:29:43;5.38;;;1.55;;
26718;SDS011;14326;50.794;6.060;2023-08-07T14:32:09;4.57;;;1.58;;
26718;SDS011;14326;50.794;6.060;2023-08-07T14:34:35;5.60;;;1.87;;
26718;SDS011;14326;50.794;6.060;2023-08-07T14:37:02;6.68;;;1.95;;
26718;SDS011;14326;50.794;6.060;2023-08-07T14:39:28;8.05;;;1.60;;
26718;SDS011;14326;50.794;6.060;2023-08-07T14:41:55;4.93;;;1.63;;